sensor_id;sensor_type;location;lat;lon;timestamp;temperature;humidity
55331;DHT22;58851;42.984;20.336;2023-02-23T00:01:17;77.60;6476.80
55331;DHT22;58851;42.984;20.336;2023-02-23T00:03:44;77.50;6476.80
55331;DHT22;58851;42.984;20.336;2023-02-23T00:06:10;77.50;6476.80
55331;DHT22;58851;42.984;20.336;2023-02-23T00:08:37;77.50;6476.80
55331;DHT22;58851;42.984;20.336;2023-02-23T00:11:08;77.50;6476.80
55331;DHT22;58851;42.984;20.336;2023-02-23T00:13:36;77.40;6476.80
55331;DHT22;58851;42.984;20.336;2023-02-23T00:16:09;77.30;6476.80
55331;DHT22;58851;42.984;20.336;2023-02-23T00:18:37;77.30;6476.80
55331;DHT22;58851;42.984;20.336;2023-02-23T00:21:17;77.40;6476.80
55331;DHT22;58851;42.984;20.336;2023-02-23T00:23:48;77.40;6476.80
55331;DHT22;58851;42.984;20.336;2023-02-23T00:26:14;77.30;6476.80
55331;DHT22;58851;42.984;20.336;2023-02-23T00:28:42;77.30;6476.80
55331;DHT22;58851;42.984;20.336;2023-02-23T00:31:09;77.30;6476.80
55331;DHT22;58851;42.984;20.336;2023-02-23T00:33:35;77.30;6476.80
55331;DHT22;58851;42.984;20.336;2023-02-23T00:36:09;77.20;6476.80
55331;DHT22;58851;42.984;20.336;2023-02-23T00:38:37;77.10;6476.80
55331;DHT22;58851;42.984;20.336;2023-02-23T00:41:09;77.10;6476.80
55331;DHT22;58851;42.984;20.336;2023-02-23T00:43:37;77.10;6476.80
55331;DHT22;58851;42.984;20.336;2023-02-23T00:46:03;77.10;6476.80
55331;DHT22;58851;42.984;20.336;2023-02-23T00:48:31;77.10;6476.80
55331;DHT22;58851;42.984;20.336;2023-02-23T00:51:02;77.00;6476.80
55331;DHT22;58851;42.984;20.336;2023-02-23T00:53:28;77.00;6476.80
55331;DHT22;58851;42.984;20.336;2023-02-23T00:55:54;77.00;6476.80
55331;DHT22;58851;42.984;20.336;2023-02-23T00:58:24;77.00;6476.80
55331;DHT22;58851;42.984;20.336;2023-02-23T01:00:51;77.00;6476.80
55331;DHT22;58851;42.984;20.336;2023-02-23T01:03:17;77.00;6476.80
55331;DHT22;58851;42.984;20.336;2023-02-23T01:05:44;76.90;6476.80
55331;DHT22;58851;42.984;20.336;2023-02-23T01:08:10;76.80;6476.80
55331;DHT22;58851;42.984;20.336;2023-02-23T01:10:41;76.80;6476.80
55331;DHT22;58851;42.984;20.336;2023-02-23T01:13:08;76.80;6476.80
55331;DHT22;58851;42.984;20.336;2023-02-23T01:15:34;76.80;6476.80
55331;DHT22;58851;42.984;20.336;2023-02-23T01:18:05;76.80;6476.80
55331;DHT22;58851;42.984;20.336;2023-02-23T01:20:33;76.80;6476.80
55331;DHT22;58851;42.984;20.336;2023-02-23T01:23:00;76.80;6476.80
55331;DHT22;58851;42.984;20.336;2023-02-23T01:25:26;76.80;6476.80
55331;DHT22;58851;42.984;20.336;2023-02-23T01:27:54;76.80;6476.80
55331;DHT22;58851;42.984;20.336;2023-02-23T01:30:19;52.10;6476.80
55331;DHT22;58851;42.984;20.336;2023-02-23T01:32:45;52.10;6476.80
55331;DHT22;58851;42.984;20.336;2023-02-23T01:35:11;52.10;6476.80
55331;DHT22;58851;42.984;20.336;2023-02-23T01:37:40;52.10;6476.80
55331;DHT22;58851;42.984;20.336;2023-02-23T01:42:39;52.00;6476.80
55331;DHT22;58851;42.984;20.336;2023-02-23T01:47:53;51.90;6476.80
55331;DHT22;58851;42.984;20.336;2023-02-23T01:50:19;51.90;6476.80
55331;DHT22;58851;42.984;20.336;2023-02-23T01:52:49;51.90;6476.80
55331;DHT22;58851;42.984;20.336;2023-02-23T01:55:18;51.90;6476.80
55331;DHT22;58851;42.984;20.336;2023-02-23T01:57:54;51.80;6476.80
55331;DHT22;58851;42.984;20.336;2023-02-23T02:00:22;51.90;6476.80
55331;DHT22;58851;42.984;20.336;2023-02-23T02:02:51;51.90;6476.80
55331;DHT22;58851;42.984;20.336;2023-02-23T02:05:17;51.90;6476.80
55331;DHT22;58851;42.984;20.336;2023-02-23T02:07:47;51.80;6476.80
55331;DHT22;58851;42.984;20.336;2023-02-23T02:10:14;51.90;6476.80
55331;DHT22;58851;42.984;20.336;2023-02-23T02:12:53;51.90;6476.80
55331;DHT22;58851;42.984;20.336;2023-02-23T02:15:23;51.90;6476.80
55331;DHT22;58851;42.984;20.336;2023-02-23T02:18:14;51.90;6476.80
55331;DHT22;58851;42.984;20.336;2023-02-23T02:32:15;51.60;6476.80
55331;DHT22;58851;42.984;20.336;2023-02-23T02:34:49;51.60;6476.80
55331;DHT22;58851;42.984;20.336;2023-02-23T02:43:10;51.50;6476.80
55331;DHT22;58851;42.984;20.336;2023-02-23T02:45:55;51.50;6476.80
55331;DHT22;58851;42.984;20.336;2023-02-23T02:54:10;51.50;6476.80
55331;DHT22;58851;42.984;20.336;2023-02-23T02:56:41;51.50;6476.80
55331;DHT22;58851;42.984;20.336;2023-02-23T02:59:13;51.30;6476.80
55331;DHT22;58851;42.984;20.336;2023-02-23T03:01:58;51.40;6476.80
55331;DHT22;58851;42.984;20.336;2023-02-23T03:04:42;51.40;6476.80
55331;DHT22;58851;42.984;20.336;2023-02-23T03:07:54;51.40;6476.80
55331;DHT22;58851;42.984;20.336;2023-02-23T03:11:01;51.40;6476.80
55331;DHT22;58851;42.984;20.336;2023-02-23T03:19:57;51.20;6476.80
55331;DHT22;58851;42.984;20.336;2023-02-23T03:28:46;26.50;6451.20
55331;DHT22;58851;42.984;20.336;2023-02-23T03:31:44;26.50;6451.20
55331;DHT22;58851;42.984;20.336;2023-02-23T03:34:39;26.50;6451.20
55331;DHT22;58851;42.984;20.336;2023-02-23T03:37:36;26.40;6451.20
55331;DHT22;58851;42.984;20.336;2023-02-23T03:40:28;26.50;6451.20
55331;DHT22;58851;42.984;20.336;2023-02-23T03:43:21;26.50;6451.20
55331;DHT22;58851;42.984;20.336;2023-02-23T03:46:09;26.50;6451.20
55331;DHT22;58851;42.984;20.336;2023-02-23T03:48:58;26.50;6451.20
55331;DHT22;58851;42.984;20.336;2023-02-23T03:51:52;26.50;6451.20
55331;DHT22;58851;42.984;20.336;2023-02-23T03:55:10;26.50;6451.20
55331;DHT22;58851;42.984;20.336;2023-02-23T03:57:58;26.50;6451.20
55331;DHT22;58851;42.984;20.336;2023-02-23T04:00:45;26.50;6451.20
55331;DHT22;58851;42.984;20.336;2023-02-23T04:03:33;26.40;6451.20
55331;DHT22;58851;42.984;20.336;2023-02-23T04:06:23;26.30;6451.20
55331;DHT22;58851;42.984;20.336;2023-02-23T04:09:08;26.30;6451.20
55331;DHT22;58851;42.984;20.336;2023-02-23T04:12:19;26.40;6451.20
55331;DHT22;58851;42.984;20.336;2023-02-23T04:15:13;26.30;6451.20
55331;DHT22;58851;42.984;20.336;2023-02-23T04:17:40;26.40;6451.20
55331;DHT22;58851;42.984;20.336;2023-02-23T04:20:08;26.30;6451.20
55331;DHT22;58851;42.984;20.336;2023-02-23T04:22:35;26.30;6451.20
55331;DHT22;58851;42.984;20.336;2023-02-23T04:25:01;26.30;6451.20
55331;DHT22;58851;42.984;20.336;2023-02-23T04:27:26;26.30;6451.20
55331;DHT22;58851;42.984;20.336;2023-02-23T04:29:52;26.30;6451.20
55331;DHT22;58851;42.984;20.336;2023-02-23T04:32:19;26.30;6451.20
55331;DHT22;58851;42.984;20.336;2023-02-23T04:34:45;26.20;6451.20
55331;DHT22;58851;42.984;20.336;2023-02-23T04:37:12;26.30;6451.20
55331;DHT22;58851;42.984;20.336;2023-02-23T04:39:38;26.30;6451.20
55331;DHT22;58851;42.984;20.336;2023-02-23T04:42:04;26.30;6451.20
55331;DHT22;58851;42.984;20.336;2023-02-23T04:44:30;26.30;6451.20
55331;DHT22;58851;42.984;20.336;2023-02-23T04:46:56;26.20;6451.20
55331;DHT22;58851;42.984;20.336;2023-02-23T04:49:22;26.30;6451.20
55331;DHT22;58851;42.984;20.336;2023-02-23T04:51:48;26.30;6451.20
55331;DHT22;58851;42.984;20.336;2023-02-23T04:54:14;26.20;6451.20
55331;DHT22;58851;42.984;20.336;2023-02-23T04:56:40;26.20;6451.20
55331;DHT22;58851;42.984;20.336;2023-02-23T04:59:06;26.20;6451.20
55331;DHT22;58851;42.984;20.336;2023-02-23T05:01:31;26.30;6451.20
55331;DHT22;58851;42.984;20.336;2023-02-23T05:03:58;26.20;6451.20
55331;DHT22;58851;42.984;20.336;2023-02-23T05:06:25;26.30;6451.20
55331;DHT22;58851;42.984;20.336;2023-02-23T05:08:51;26.30;6451.20
55331;DHT22;58851;42.984;20.336;2023-02-23T05:11:17;26.20;6451.20
55331;DHT22;58851;42.984;20.336;2023-02-23T05:13:43;26.10;6451.20
55331;DHT22;58851;42.984;20.336;2023-02-23T05:16:08;26.10;6451.20
55331;DHT22;58851;42.984;20.336;2023-02-23T05:18:34;26.10;6451.20
55331;DHT22;58851;42.984;20.336;2023-02-23T05:21:02;26.10;6451.20
55331;DHT22;58851;42.984;20.336;2023-02-23T05:23:28;26.10;6451.20
55331;DHT22;58851;42.984;20.336;2023-02-23T05:25:59;26.10;6451.20
55331;DHT22;58851;42.984;20.336;2023-02-23T05:28:25;26.00;6451.20
55331;DHT22;58851;42.984;20.336;2023-02-23T05:30:54;26.10;6451.20
55331;DHT22;58851;42.984;20.336;2023-02-23T05:33:20;26.10;6451.20
55331;DHT22;58851;42.984;20.336;2023-02-23T05:35:47;26.10;6451.20
55331;DHT22;58851;42.984;20.336;2023-02-23T05:38:13;26.10;6451.20
55331;DHT22;58851;42.984;20.336;2023-02-23T05:40:39;26.20;6451.20
55331;DHT22;58851;42.984;20.336;2023-02-23T05:43:05;26.20;6451.20
55331;DHT22;58851;42.984;20.336;2023-02-23T05:45:31;26.10;6451.20
55331;DHT22;58851;42.984;20.336;2023-02-23T05:47:58;26.10;6451.20
55331;DHT22;58851;42.984;20.336;2023-02-23T05:50:25;26.20;6451.20
55331;DHT22;58851;42.984;20.336;2023-02-23T05:52:51;26.20;6451.20
55331;DHT22;58851;42.984;20.336;2023-02-23T05:55:17;26.30;6451.20
55331;DHT22;58851;42.984;20.336;2023-02-23T05:57:42;26.30;6451.20
55331;DHT22;58851;42.984;20.336;2023-02-23T06:00:10;26.40;6451.20
55331;DHT22;58851;42.984;20.336;2023-02-23T06:02:38;26.40;6451.20
55331;DHT22;58851;42.984;20.336;2023-02-23T06:05:04;26.50;6451.20
55331;DHT22;58851;42.984;20.336;2023-02-23T06:07:30;26.50;6451.20
55331;DHT22;58851;42.984;20.336;2023-02-23T06:09:56;26.50;6451.20
55331;DHT22;58851;42.984;20.336;2023-02-23T06:12:22;26.50;6451.20
55331;DHT22;58851;42.984;20.336;2023-02-23T06:14:48;51.20;6476.80
55331;DHT22;58851;42.984;20.336;2023-02-23T06:17:15;51.30;6476.80
55331;DHT22;58851;42.984;20.336;2023-02-23T06:19:41;51.20;6476.80
55331;DHT22;58851;42.984;20.336;2023-02-23T06:22:07;51.30;6476.80
55331;DHT22;58851;42.984;20.336;2023-02-23T06:24:33;51.30;6476.80
55331;DHT22;58851;42.984;20.336;2023-02-23T06:26:59;51.30;6476.80
55331;DHT22;58851;42.984;20.336;2023-02-23T06:29:25;51.30;6476.80
55331;DHT22;58851;42.984;20.336;2023-02-23T06:31:50;51.40;6476.80
55331;DHT22;58851;42.984;20.336;2023-02-23T06:34:16;51.40;6476.80
55331;DHT22;58851;42.984;20.336;2023-02-23T06:36:42;51.50;6476.80
55331;DHT22;58851;42.984;20.336;2023-02-23T06:39:10;51.50;6476.80
55331;DHT22;58851;42.984;20.336;2023-02-23T06:41:36;51.50;6476.80
55331;DHT22;58851;42.984;20.336;2023-02-23T06:44:02;51.60;6476.80
55331;DHT22;58851;42.984;20.336;2023-02-23T06:46:27;51.70;6476.80
55331;DHT22;58851;42.984;20.336;2023-02-23T06:48:54;51.70;6476.80
55331;DHT22;58851;42.984;20.336;2023-02-23T06:51:21;51.90;6476.80
55331;DHT22;58851;42.984;20.336;2023-02-23T06:53:46;51.90;6476.80
55331;DHT22;58851;42.984;20.336;2023-02-23T06:56:12;51.90;6476.80
55331;DHT22;58851;42.984;20.336;2023-02-23T06:58:39;52.00;6476.80
55331;DHT22;58851;42.984;20.336;2023-02-23T07:01:04;76.80;6476.80
55331;DHT22;58851;42.984;20.336;2023-02-23T07:03:30;76.90;6476.80
55331;DHT22;58851;42.984;20.336;2023-02-23T07:05:56;77.00;6476.80
55331;DHT22;58851;42.984;20.336;2023-02-23T07:08:22;77.00;6476.80
55331;DHT22;58851;42.984;20.336;2023-02-23T07:10:48;77.10;6476.80
55331;DHT22;58851;42.984;20.336;2023-02-23T07:13:13;77.10;6476.80
55331;DHT22;58851;42.984;20.336;2023-02-23T07:15:40;77.10;6476.80
55331;DHT22;58851;42.984;20.336;2023-02-23T07:18:07;77.30;6476.80
55331;DHT22;58851;42.984;20.336;2023-02-23T07:20:33;77.40;6476.80
55331;DHT22;58851;42.984;20.336;2023-02-23T07:23:00;77.40;6476.80
55331;DHT22;58851;42.984;20.336;2023-02-23T07:25:30;77.50;6476.80
55331;DHT22;58851;42.984;20.336;2023-02-23T07:27:55;77.60;6476.80
55331;DHT22;58851;42.984;20.336;2023-02-23T07:30:24;77.60;6476.80
55331;DHT22;58851;42.984;20.336;2023-02-23T07:32:51;77.70;6476.80
55331;DHT22;58851;42.984;20.336;2023-02-23T07:35:17;102.40;6476.80
55331;DHT22;58851;42.984;20.336;2023-02-23T07:37:43;102.40;6476.80
55331;DHT22;58851;42.984;20.336;2023-02-23T07:40:09;102.50;6476.80
55331;DHT22;58851;42.984;20.336;2023-02-23T07:42:35;102.50;6476.80
55331;DHT22;58851;42.984;20.336;2023-02-23T07:45:01;102.60;6476.80
55331;DHT22;58851;42.984;20.336;2023-02-23T07:47:27;102.60;6476.80
55331;DHT22;58851;42.984;20.336;2023-02-23T07:49:59;102.60;6476.80
55331;DHT22;58851;42.984;20.336;2023-02-23T07:52:28;102.60;6476.80
55331;DHT22;58851;42.984;20.336;2023-02-23T07:54:54;102.80;6476.80
55331;DHT22;58851;42.984;20.336;2023-02-23T07:57:20;102.80;6476.80
55331;DHT22;58851;42.984;20.336;2023-02-23T07:59:49;103.00;6476.80
55331;DHT22;58851;42.984;20.336;2023-02-23T08:02:15;103.10;6476.80
55331;DHT22;58851;42.984;20.336;2023-02-23T08:04:41;103.20;6476.80
55331;DHT22;58851;42.984;20.336;2023-02-23T08:07:08;128.00;6502.40
55331;DHT22;58851;42.984;20.336;2023-02-23T08:09:35;128.10;6502.40
55331;DHT22;58851;42.984;20.336;2023-02-23T08:12:07;128.20;6502.40
55331;DHT22;58851;42.984;20.336;2023-02-23T08:14:32;128.20;6502.40
55331;DHT22;58851;42.984;20.336;2023-02-23T08:16:58;128.30;6502.40
55331;DHT22;58851;42.984;20.336;2023-02-23T08:19:27;128.20;6502.40
55331;DHT22;58851;42.984;20.336;2023-02-23T08:21:53;128.40;6502.40
55331;DHT22;58851;42.984;20.336;2023-02-23T08:24:19;128.50;6502.40
55331;DHT22;58851;42.984;20.336;2023-02-23T08:26:44;128.70;6502.40
55331;DHT22;58851;42.984;20.336;2023-02-23T08:29:10;128.80;6502.40
55331;DHT22;58851;42.984;20.336;2023-02-23T08:31:36;128.80;6502.40
55331;DHT22;58851;42.984;20.336;2023-02-23T08:34:02;128.70;6502.40
55331;DHT22;58851;42.984;20.336;2023-02-23T08:36:28;128.70;6502.40
55331;DHT22;58851;42.984;20.336;2023-02-23T08:38:54;128.90;6502.40
55331;DHT22;58851;42.984;20.336;2023-02-23T08:41:20;153.70;6502.40
55331;DHT22;58851;42.984;20.336;2023-02-23T08:43:46;153.90;6502.40
55331;DHT22;58851;42.984;20.336;2023-02-23T08:46:13;154.10;6502.40
55331;DHT22;58851;42.984;20.336;2023-02-23T08:48:41;154.30;6502.40
55331;DHT22;58851;42.984;20.336;2023-02-23T08:51:07;154.40;6502.40
55331;DHT22;58851;42.984;20.336;2023-02-23T08:53:33;179.20;6502.40
55331;DHT22;58851;42.984;20.336;2023-02-23T08:56:01;179.40;6502.40
55331;DHT22;58851;42.984;20.336;2023-02-23T08:58:28;179.50;6502.40
55331;DHT22;58851;42.984;20.336;2023-02-23T09:00:55;179.60;6502.40
55331;DHT22;58851;42.984;20.336;2023-02-23T09:03:21;179.80;6502.40
55331;DHT22;58851;42.984;20.336;2023-02-23T09:05:48;179.90;6502.40
55331;DHT22;58851;42.984;20.336;2023-02-23T09:08:14;204.80;6502.40
55331;DHT22;58851;42.984;20.336;2023-02-23T09:10:41;205.00;6502.40
55331;DHT22;58851;42.984;20.336;2023-02-23T09:13:09;205.00;6502.40
55331;DHT22;58851;42.984;20.336;2023-02-23T09:15:39;205.20;6502.40
55331;DHT22;58851;42.984;20.336;2023-02-23T09:18:06;205.30;6502.40
55331;DHT22;58851;42.984;20.336;2023-02-23T09:20:33;205.50;6502.40
55331;DHT22;58851;42.984;20.336;2023-02-23T09:22:59;205.70;6502.40
55331;DHT22;58851;42.984;20.336;2023-02-23T09:25:25;230.50;6502.40
55331;DHT22;58851;42.984;20.336;2023-02-23T09:27:54;230.70;563.20
55331;DHT22;58851;42.984;20.336;2023-02-23T09:30:24;230.70;563.20
55331;DHT22;58851;42.984;20.336;2023-02-23T09:32:50;230.50;512.00
55331;DHT22;58851;42.984;20.336;2023-02-23T09:35:18;230.50;512.00
55331;DHT22;58851;42.984;20.336;2023-02-23T09:37:54;230.70;512.00
55331;DHT22;58851;42.984;20.336;2023-02-23T09:40:22;231.10;435.20
55331;DHT22;58851;42.984;20.336;2023-02-23T09:43:11;231.30;384.00
55331;DHT22;58851;42.984;20.336;2023-02-23T09:46:10;256.30;307.20
55331;DHT22;58851;42.984;20.336;2023-02-23T09:48:39;256.40;6502.40
55331;DHT22;58851;42.984;20.336;2023-02-23T09:51:06;256.80;6502.40
55331;DHT22;58851;42.984;20.336;2023-02-23T09:53:55;281.60;128.00
55331;DHT22;58851;42.984;20.336;2023-02-23T09:56:44;281.80;6528.00
55331;DHT22;58851;42.984;20.336;2023-02-23T09:59:14;282.00;6528.00
55331;DHT22;58851;42.984;20.336;2023-02-23T10:02:20;282.30;6528.00
55331;DHT22;58851;42.984;20.336;2023-02-23T10:04:57;282.10;6528.00
55331;DHT22;58851;42.984;20.336;2023-02-23T10:07:57;282.40;6528.00
55331;DHT22;58851;42.984;20.336;2023-02-23T10:10:36;307.20;128.00
55331;DHT22;58851;42.984;20.336;2023-02-23T10:26:38;332.90;128.00
55331;DHT22;58851;42.984;20.336;2023-02-23T10:29:20;333.10;128.00
55331;DHT22;58851;42.984;20.336;2023-02-23T10:31:50;333.10;128.00
55331;DHT22;58851;42.984;20.336;2023-02-23T10:34:18;333.30;128.00
55331;DHT22;58851;42.984;20.336;2023-02-23T10:39:16;333.40;128.00
55331;DHT22;58851;42.984;20.336;2023-02-23T10:41:42;333.50;128.00
55331;DHT22;58851;42.984;20.336;2023-02-23T10:44:24;333.70;128.00
55331;DHT22;58851;42.984;20.336;2023-02-23T10:47:00;333.70;128.00
55331;DHT22;58851;42.984;20.336;2023-02-23T10:49:59;333.70;128.00
55331;DHT22;58851;42.984;20.336;2023-02-23T10:52:30;358.40;128.00
55331;DHT22;58851;42.984;20.336;2023-02-23T10:54:57;358.40;128.00
55331;DHT22;58851;42.984;20.336;2023-02-23T10:57:28;358.60;128.00
55331;DHT22;58851;42.984;20.336;2023-02-23T11:02:37;358.80;128.00
55331;DHT22;58851;42.984;20.336;2023-02-23T11:05:04;359.00;128.00
55331;DHT22;58851;42.984;20.336;2023-02-23T11:07:31;359.10;128.00
55331;DHT22;58851;42.984;20.336;2023-02-23T11:09:59;384.00;128.00
55331;DHT22;58851;42.984;20.336;2023-02-23T11:12:35;384.20;128.00
55331;DHT22;58851;42.984;20.336;2023-02-23T11:15:25;384.40;128.00
55331;DHT22;58851;42.984;20.336;2023-02-23T11:18:02;384.60;128.00
55331;DHT22;58851;42.984;20.336;2023-02-23T11:20:35;384.80;128.00
55331;DHT22;58851;42.984;20.336;2023-02-23T11:25:43;409.60;128.00
55331;DHT22;58851;42.984;20.336;2023-02-23T11:28:40;409.80;128.00
55331;DHT22;58851;42.984;20.336;2023-02-23T11:33:39;410.10;128.00
55331;DHT22;58851;42.984;20.336;2023-02-23T11:36:17;410.20;128.00
55331;DHT22;58851;42.984;20.336;2023-02-23T11:39:19;410.30;128.00
55331;DHT22;58851;42.984;20.336;2023-02-23T11:41:46;410.50;128.00
55331;DHT22;58851;42.984;20.336;2023-02-23T11:44:27;410.50;128.00
55331;DHT22;58851;42.984;20.336;2023-02-23T11:46:53;435.20;128.00
55331;DHT22;58851;42.984;20.336;2023-02-23T11:49:29;435.20;128.00
55331;DHT22;58851;42.984;20.336;2023-02-23T11:51:56;435.30;128.00
55331;DHT22;58851;42.984;20.336;2023-02-23T11:54:32;435.40;128.00
55331;DHT22;58851;42.984;20.336;2023-02-23T11:56:58;435.40;128.00
55331;DHT22;58851;42.984;20.336;2023-02-23T11:59:39;435.50;128.00
55331;DHT22;58851;42.984;20.336;2023-02-23T12:02:26;435.60;128.00
55331;DHT22;58851;42.984;20.336;2023-02-23T12:05:21;435.50;128.00
55331;DHT22;58851;42.984;20.336;2023-02-23T12:07:54;435.60;128.00
55331;DHT22;58851;42.984;20.336;2023-02-23T12:10:37;435.80;128.00
55331;DHT22;58851;42.984;20.336;2023-02-23T12:16:00;436.10;128.00
55331;DHT22;58851;42.984;20.336;2023-02-23T12:23:41;461.00;128.00
55331;DHT22;58851;42.984;20.336;2023-02-23T12:26:13;461.00;128.00
55331;DHT22;58851;42.984;20.336;2023-02-23T12:28:59;461.00;128.00
55331;DHT22;58851;42.984;20.336;2023-02-23T12:34:00;461.00;128.00
55331;DHT22;58851;42.984;20.336;2023-02-23T12:36:40;461.10;128.00
55331;DHT22;58851;42.984;20.336;2023-02-23T12:39:18;461.20;128.00
55331;DHT22;58851;42.984;20.336;2023-02-23T12:45:00;461.30;128.00
55331;DHT22;58851;42.984;20.336;2023-02-23T12:47:31;461.30;128.00
55331;DHT22;58851;42.984;20.336;2023-02-23T12:52:54;461.20;128.00
55331;DHT22;58851;42.984;20.336;2023-02-23T12:55:48;461.30;128.00
55331;DHT22;58851;42.984;20.336;2023-02-23T13:06:32;461.30;128.00
55331;DHT22;58851;42.984;20.336;2023-02-23T13:17:39;461.50;128.00
55331;DHT22;58851;42.984;20.336;2023-02-23T13:28:51;486.40;128.00
55331;DHT22;58851;42.984;20.336;2023-02-23T13:31:37;486.50;128.00
55331;DHT22;58851;42.984;20.336;2023-02-23T13:34:08;461.70;128.00
55331;DHT22;58851;42.984;20.336;2023-02-23T13:36:35;461.60;128.00
55331;DHT22;58851;42.984;20.336;2023-02-23T13:39:33;461.70;128.00
55331;DHT22;58851;42.984;20.336;2023-02-23T13:47:57;461.50;128.00
55331;DHT22;58851;42.984;20.336;2023-02-23T13:52:53;461.50;128.00
55331;DHT22;58851;42.984;20.336;2023-02-23T13:57:53;461.70;128.00
55331;DHT22;58851;42.984;20.336;2023-02-23T14:00:21;461.70;128.00
55331;DHT22;58851;42.984;20.336;2023-02-23T14:02:47;486.60;128.00
55331;DHT22;58851;42.984;20.336;2023-02-23T14:05:19;486.60;128.00
55331;DHT22;58851;42.984;20.336;2023-02-23T14:08:00;486.50;128.00
55331;DHT22;58851;42.984;20.336;2023-02-23T14:10:34;486.60;128.00
55331;DHT22;58851;42.984;20.336;2023-02-23T14:13:06;486.60;128.00
55331;DHT22;58851;42.984;20.336;2023-02-23T14:15:45;486.60;128.00
55331;DHT22;58851;42.984;20.336;2023-02-23T14:32:01;461.40;128.00
55331;DHT22;58851;42.984;20.336;2023-02-23T14:34:56;461.30;128.00
55331;DHT22;58851;42.984;20.336;2023-02-23T14:37:26;461.50;128.00
55331;DHT22;58851;42.984;20.336;2023-02-23T14:40:00;461.50;128.00
55331;DHT22;58851;42.984;20.336;2023-02-23T14:42:28;461.50;128.00
55331;DHT22;58851;42.984;20.336;2023-02-23T14:44:55;461.30;128.00
55331;DHT22;58851;42.984;20.336;2023-02-23T14:47:25;461.30;128.00
55331;DHT22;58851;42.984;20.336;2023-02-23T14:50:00;461.20;128.00
55331;DHT22;58851;42.984;20.336;2023-02-23T14:52:35;461.40;128.00
55331;DHT22;58851;42.984;20.336;2023-02-23T14:57:39;461.20;128.00
55331;DHT22;58851;42.984;20.336;2023-02-23T15:00:22;461.10;128.00
55331;DHT22;58851;42.984;20.336;2023-02-23T15:02:58;460.90;128.00
55331;DHT22;58851;42.984;20.336;2023-02-23T15:05:33;436.10;128.00
55331;DHT22;58851;42.984;20.336;2023-02-23T15:08:03;436.00;128.00
55331;DHT22;58851;42.984;20.336;2023-02-23T15:10:31;435.80;128.00
55331;DHT22;58851;42.984;20.336;2023-02-23T15:12:58;435.50;128.00
55331;DHT22;58851;42.984;20.336;2023-02-23T15:15:25;435.50;128.00
55331;DHT22;58851;42.984;20.336;2023-02-23T15:17:54;435.40;128.00
55331;DHT22;58851;42.984;20.336;2023-02-23T15:20:22;435.30;128.00
55331;DHT22;58851;42.984;20.336;2023-02-23T15:22:54;435.20;128.00
55331;DHT22;58851;42.984;20.336;2023-02-23T15:25:42;410.50;128.00
55331;DHT22;58851;42.984;20.336;2023-02-23T15:28:28;410.40;128.00
55331;DHT22;58851;42.984;20.336;2023-02-23T15:30:58;410.30;128.00
55331;DHT22;58851;42.984;20.336;2023-02-23T15:33:24;410.30;128.00
55331;DHT22;58851;42.984;20.336;2023-02-23T15:36:15;410.20;128.00
55331;DHT22;58851;42.984;20.336;2023-02-23T15:38:47;410.00;128.00
55331;DHT22;58851;42.984;20.336;2023-02-23T15:41:29;410.00;128.00
55331;DHT22;58851;42.984;20.336;2023-02-23T15:46:54;409.80;128.00
55331;DHT22;58851;42.984;20.336;2023-02-23T15:49:21;409.60;128.00
55331;DHT22;58851;42.984;20.336;2023-02-23T15:51:52;384.90;128.00
55331;DHT22;58851;42.984;20.336;2023-02-23T15:57:02;384.60;128.00
55331;DHT22;58851;42.984;20.336;2023-02-23T15:59:35;384.60;128.00
55331;DHT22;58851;42.984;20.336;2023-02-23T16:02:11;384.50;128.00
55331;DHT22;58851;42.984;20.336;2023-02-23T16:04:45;384.20;128.00
55331;DHT22;58851;42.984;20.336;2023-02-23T16:07:35;384.00;128.00
55331;DHT22;58851;42.984;20.336;2023-02-23T16:10:04;359.30;128.00
55331;DHT22;58851;42.984;20.336;2023-02-23T16:12:31;359.00;128.00
55331;DHT22;58851;42.984;20.336;2023-02-23T16:15:00;358.80;128.00
55331;DHT22;58851;42.984;20.336;2023-02-23T16:17:51;358.60;128.00
55331;DHT22;58851;42.984;20.336;2023-02-23T16:23:10;358.40;128.00
55331;DHT22;58851;42.984;20.336;2023-02-23T16:25:41;333.60;128.00
55331;DHT22;58851;42.984;20.336;2023-02-23T16:28:11;333.50;128.00
55331;DHT22;58851;42.984;20.336;2023-02-23T16:30:43;333.30;128.00
55331;DHT22;58851;42.984;20.336;2023-02-23T16:33:23;333.20;128.00
55331;DHT22;58851;42.984;20.336;2023-02-23T16:41:21;308.00;128.00
55331;DHT22;58851;42.984;20.336;2023-02-23T16:43:48;307.90;128.00
55331;DHT22;58851;42.984;20.336;2023-02-23T16:46:19;307.90;128.00
55331;DHT22;58851;42.984;20.336;2023-02-23T16:48:46;307.90;128.00
55331;DHT22;58851;42.984;20.336;2023-02-23T16:51:17;307.80;128.00
55331;DHT22;58851;42.984;20.336;2023-02-23T16:53:44;307.40;128.00
55331;DHT22;58851;42.984;20.336;2023-02-23T16:56:20;282.50;6528.00
55331;DHT22;58851;42.984;20.336;2023-02-23T16:58:54;282.30;6528.00
55331;DHT22;58851;42.984;20.336;2023-02-23T17:01:22;282.20;6528.00
55331;DHT22;58851;42.984;20.336;2023-02-23T17:03:48;282.10;6528.00
55331;DHT22;58851;42.984;20.336;2023-02-23T17:06:14;281.90;6528.00
55331;DHT22;58851;42.984;20.336;2023-02-23T17:08:40;281.80;6528.00
55331;DHT22;58851;42.984;20.336;2023-02-23T17:11:06;281.70;6528.00
55331;DHT22;58851;42.984;20.336;2023-02-23T17:13:33;281.80;6528.00
55331;DHT22;58851;42.984;20.336;2023-02-23T17:16:01;281.60;6528.00
55331;DHT22;58851;42.984;20.336;2023-02-23T17:18:30;256.80;6502.40
55331;DHT22;58851;42.984;20.336;2023-02-23T17:20:58;256.80;6502.40
55331;DHT22;58851;42.984;20.336;2023-02-23T17:23:42;256.80;6502.40
55331;DHT22;58851;42.984;20.336;2023-02-23T17:26:23;256.70;6502.40
55331;DHT22;58851;42.984;20.336;2023-02-23T17:28:49;256.30;6502.40
55331;DHT22;58851;42.984;20.336;2023-02-23T17:31:16;256.30;6502.40
55331;DHT22;58851;42.984;20.336;2023-02-23T17:33:43;256.40;6502.40
55331;DHT22;58851;42.984;20.336;2023-02-23T17:36:12;256.40;6502.40
55331;DHT22;58851;42.984;20.336;2023-02-23T17:38:38;256.30;6502.40
55331;DHT22;58851;42.984;20.336;2023-02-23T17:41:12;256.30;6502.40